sensor_id;sensor_type;location;lat;lon;timestamp;temperature;humidity
6357;DHT22;3211;53.452;-2.264;2023-05-16T00:02:12;10.20;99.90
6357;DHT22;3211;53.452;-2.264;2023-05-16T00:04:55;10.30;99.90
6357;DHT22;3211;53.452;-2.264;2023-05-16T00:07:37;10.40;99.90
6357;DHT22;3211;53.452;-2.264;2023-05-16T00:10:19;10.30;99.90
6357;DHT22;3211;53.452;-2.264;2023-05-16T00:13:01;10.30;99.90
6357;DHT22;3211;53.452;-2.264;2023-05-16T00:15:43;10.40;99.90
6357;DHT22;3211;53.452;-2.264;2023-05-16T00:18:27;10.30;99.90
6357;DHT22;3211;53.452;-2.264;2023-05-16T00:21:09;10.20;99.90
6357;DHT22;3211;53.452;-2.264;2023-05-16T00:23:51;10.30;99.90
6357;DHT22;3211;53.452;-2.264;2023-05-16T00:26:33;10.30;99.90
6357;DHT22;3211;53.452;-2.264;2023-05-16T00:29:15;10.10;99.90
6357;DHT22;3211;53.452;-2.264;2023-05-16T00:31:57;10.00;99.90
6357;DHT22;3211;53.452;-2.264;2023-05-16T00:34:41;10.10;99.90
6357;DHT22;3211;53.452;-2.264;2023-05-16T00:37:23;10.00;99.90
6357;DHT22;3211;53.452;-2.264;2023-05-16T00:40:05;9.90;99.90
6357;DHT22;3211;53.452;-2.264;2023-05-16T00:42:48;9.80;99.90
6357;DHT22;3211;53.452;-2.264;2023-05-16T00:45:29;9.80;99.90
6357;DHT22;3211;53.452;-2.264;2023-05-16T00:48:12;9.70;99.90
6357;DHT22;3211;53.452;-2.264;2023-05-16T00:50:56;9.70;99.90
6357;DHT22;3211;53.452;-2.264;2023-05-16T00:53:38;9.60;99.90
6357;DHT22;3211;53.452;-2.264;2023-05-16T00:56:21;9.60;99.90
6357;DHT22;3211;53.452;-2.264;2023-05-16T00:59:03;9.60;99.90
6357;DHT22;3211;53.452;-2.264;2023-05-16T01:01:46;9.70;99.90
6357;DHT22;3211;53.452;-2.264;2023-05-16T01:04:28;9.80;99.90
6357;DHT22;3211;53.452;-2.264;2023-05-16T01:07:12;9.80;99.90
6357;DHT22;3211;53.452;-2.264;2023-05-16T01:09:54;9.80;99.90
6357;DHT22;3211;53.452;-2.264;2023-05-16T01:12:41;9.70;99.90
6357;DHT22;3211;53.452;-2.264;2023-05-16T01:15:28;9.70;99.90
6357;DHT22;3211;53.452;-2.264;2023-05-16T01:18:17;9.80;99.90
6357;DHT22;3211;53.452;-2.264;2023-05-16T01:21:06;9.80;99.90
6357;DHT22;3211;53.452;-2.264;2023-05-16T01:23:59;9.80;99.90
6357;DHT22;3211;53.452;-2.264;2023-05-16T01:26:45;9.80;99.90
6357;DHT22;3211;53.452;-2.264;2023-05-16T01:29:28;9.80;99.90
6357;DHT22;3211;53.452;-2.264;2023-05-16T01:32:10;9.80;99.90
6357;DHT22;3211;53.452;-2.264;2023-05-16T01:34:54;9.90;99.90
6357;DHT22;3211;53.452;-2.264;2023-05-16T01:37:40;9.50;99.90
6357;DHT22;3211;53.452;-2.264;2023-05-16T01:40:29;9.50;99.90
6357;DHT22;3211;53.452;-2.264;2023-05-16T01:43:18;9.70;99.90
6357;DHT22;3211;53.452;-2.264;2023-05-16T01:46:05;9.60;99.90
6357;DHT22;3211;53.452;-2.264;2023-05-16T01:48:52;9.70;99.90
6357;DHT22;3211;53.452;-2.264;2023-05-16T01:51:41;9.60;99.90
6357;DHT22;3211;53.452;-2.264;2023-05-16T01:54:25;9.50;99.90
6357;DHT22;3211;53.452;-2.264;2023-05-16T01:57:08;9.40;99.90
6357;DHT22;3211;53.452;-2.264;2023-05-16T01:59:52;9.60;99.90
6357;DHT22;3211;53.452;-2.264;2023-05-16T02:02:34;9.40;99.90
6357;DHT22;3211;53.452;-2.264;2023-05-16T02:05:16;9.50;99.90
6357;DHT22;3211;53.452;-2.264;2023-05-16T02:07:59;9.60;99.90
6357;DHT22;3211;53.452;-2.264;2023-05-16T02:10:41;9.60;99.90
6357;DHT22;3211;53.452;-2.264;2023-05-16T02:13:23;9.60;99.90
6357;DHT22;3211;53.452;-2.264;2023-05-16T02:16:06;9.70;99.90
6357;DHT22;3211;53.452;-2.264;2023-05-16T02:18:48;9.70;99.90
6357;DHT22;3211;53.452;-2.264;2023-05-16T02:21:30;9.80;99.90
6357;DHT22;3211;53.452;-2.264;2023-05-16T02:24:12;9.70;99.90
6357;DHT22;3211;53.452;-2.264;2023-05-16T02:26:54;9.70;99.90
6357;DHT22;3211;53.452;-2.264;2023-05-16T02:29:36;9.60;99.90
6357;DHT22;3211;53.452;-2.264;2023-05-16T02:32:19;9.60;99.90
6357;DHT22;3211;53.452;-2.264;2023-05-16T02:35:01;9.70;99.90
6357;DHT22;3211;53.452;-2.264;2023-05-16T02:37:44;9.40;99.90
6357;DHT22;3211;53.452;-2.264;2023-05-16T02:40:26;9.40;99.90
6357;DHT22;3211;53.452;-2.264;2023-05-16T02:43:08;9.40;99.90
6357;DHT22;3211;53.452;-2.264;2023-05-16T02:45:50;9.40;99.90
6357;DHT22;3211;53.452;-2.264;2023-05-16T02:48:33;9.40;99.90
6357;DHT22;3211;53.452;-2.264;2023-05-16T02:51:16;9.40;99.90
6357;DHT22;3211;53.452;-2.264;2023-05-16T02:53:57;9.50;99.90
6357;DHT22;3211;53.452;-2.264;2023-05-16T02:56:40;9.60;99.90
6357;DHT22;3211;53.452;-2.264;2023-05-16T02:59:22;9.50;99.90
6357;DHT22;3211;53.452;-2.264;2023-05-16T03:02:06;9.50;99.90
6357;DHT22;3211;53.452;-2.264;2023-05-16T03:04:49;9.50;99.90
6357;DHT22;3211;53.452;-2.264;2023-05-16T03:07:31;9.50;99.90
6357;DHT22;3211;53.452;-2.264;2023-05-16T03:10:13;9.40;99.90
6357;DHT22;3211;53.452;-2.264;2023-05-16T03:12:55;9.30;99.90
6357;DHT22;3211;53.452;-2.264;2023-05-16T03:15:37;9.10;99.90
6357;DHT22;3211;53.452;-2.264;2023-05-16T03:18:19;9.10;99.90
6357;DHT22;3211;53.452;-2.264;2023-05-16T03:21:02;9.20;99.90
6357;DHT22;3211;53.452;-2.264;2023-05-16T03:23:44;9.30;99.90
6357;DHT22;3211;53.452;-2.264;2023-05-16T03:26:26;9.50;99.90
6357;DHT22;3211;53.452;-2.264;2023-05-16T03:29:08;9.50;99.90
6357;DHT22;3211;53.452;-2.264;2023-05-16T03:31:50;9.50;99.90
6357;DHT22;3211;53.452;-2.264;2023-05-16T03:34:32;9.50;99.90
6357;DHT22;3211;53.452;-2.264;2023-05-16T03:37:15;9.50;99.90
6357;DHT22;3211;53.452;-2.264;2023-05-16T03:39:57;9.50;99.90
6357;DHT22;3211;53.452;-2.264;2023-05-16T03:42:40;9.40;99.90
6357;DHT22;3211;53.452;-2.264;2023-05-16T03:45:21;9.20;99.90
6357;DHT22;3211;53.452;-2.264;2023-05-16T03:48:04;9.10;99.90
6357;DHT22;3211;53.452;-2.264;2023-05-16T03:50:46;8.90;99.90
6357;DHT22;3211;53.452;-2.264;2023-05-16T03:53:29;9.00;99.90
6357;DHT22;3211;53.452;-2.264;2023-05-16T03:56:11;9.00;99.90
6357;DHT22;3211;53.452;-2.264;2023-05-16T03:58:53;9.30;99.90
6357;DHT22;3211;53.452;-2.264;2023-05-16T04:01:35;9.50;99.90
6357;DHT22;3211;53.452;-2.264;2023-05-16T04:04:17;9.50;99.90
6357;DHT22;3211;53.452;-2.264;2023-05-16T04:07:00;9.60;99.90
6357;DHT22;3211;53.452;-2.264;2023-05-16T04:09:43;9.60;99.90
6357;DHT22;3211;53.452;-2.264;2023-05-16T04:12:25;9.70;99.90
6357;DHT22;3211;53.452;-2.264;2023-05-16T04:15:08;9.70;99.90
6357;DHT22;3211;53.452;-2.264;2023-05-16T04:17:50;9.70;99.90
6357;DHT22;3211;53.452;-2.264;2023-05-16T04:20:32;9.70;99.90
6357;DHT22;3211;53.452;-2.264;2023-05-16T04:23:14;9.80;99.90
6357;DHT22;3211;53.452;-2.264;2023-05-16T04:25:58;9.80;99.90
6357;DHT22;3211;53.452;-2.264;2023-05-16T04:28:41;9.80;99.90
6357;DHT22;3211;53.452;-2.264;2023-05-16T04:31:24;9.80;99.90
6357;DHT22;3211;53.452;-2.264;2023-05-16T04:34:06;9.60;99.90
6357;DHT22;3211;53.452;-2.264;2023-05-16T04:36:48;9.40;99.90
6357;DHT22;3211;53.452;-2.264;2023-05-16T04:39:30;9.50;99.90
6357;DHT22;3211;53.452;-2.264;2023-05-16T04:42:13;9.50;99.90
6357;DHT22;3211;53.452;-2.264;2023-05-16T04:44:56;9.50;99.90
6357;DHT22;3211;53.452;-2.264;2023-05-16T04:47:38;9.60;99.90
6357;DHT22;3211;53.452;-2.264;2023-05-16T04:50:22;9.60;99.90
6357;DHT22;3211;53.452;-2.264;2023-05-16T04:53:04;9.70;99.90
6357;DHT22;3211;53.452;-2.264;2023-05-16T04:55:46;9.80;99.90
6357;DHT22;3211;53.452;-2.264;2023-05-16T04:58:29;9.80;99.90
6357;DHT22;3211;53.452;-2.264;2023-05-16T05:01:11;9.90;99.90
6357;DHT22;3211;53.452;-2.264;2023-05-16T05:03:53;9.90;99.90
6357;DHT22;3211;53.452;-2.264;2023-05-16T05:06:35;9.90;99.90
6357;DHT22;3211;53.452;-2.264;2023-05-16T05:09:18;10.00;99.90
6357;DHT22;3211;53.452;-2.264;2023-05-16T05:12:00;10.10;99.90
6357;DHT22;3211;53.452;-2.264;2023-05-16T05:14:43;10.00;99.90
6357;DHT22;3211;53.452;-2.264;2023-05-16T05:17:25;9.90;99.90
6357;DHT22;3211;53.452;-2.264;2023-05-16T05:20:08;9.90;99.90
6357;DHT22;3211;53.452;-2.264;2023-05-16T05:22:52;10.00;99.90
6357;DHT22;3211;53.452;-2.264;2023-05-16T05:25:35;10.00;99.90
6357;DHT22;3211;53.452;-2.264;2023-05-16T05:28:17;10.20;99.90
6357;DHT22;3211;53.452;-2.264;2023-05-16T05:31:00;10.10;99.90
6357;DHT22;3211;53.452;-2.264;2023-05-16T05:33:44;10.10;99.90
6357;DHT22;3211;53.452;-2.264;2023-05-16T05:36:26;10.00;99.90
6357;DHT22;3211;53.452;-2.264;2023-05-16T05:39:08;10.20;99.90
6357;DHT22;3211;53.452;-2.264;2023-05-16T05:41:50;10.30;99.90
6357;DHT22;3211;53.452;-2.264;2023-05-16T05:44:32;10.30;99.90
6357;DHT22;3211;53.452;-2.264;2023-05-16T05:47:16;10.20;99.90
6357;DHT22;3211;53.452;-2.264;2023-05-16T05:49:58;10.20;99.90
6357;DHT22;3211;53.452;-2.264;2023-05-16T05:52:40;10.20;99.90
6357;DHT22;3211;53.452;-2.264;2023-05-16T05:55:22;10.10;99.90
6357;DHT22;3211;53.452;-2.264;2023-05-16T05:58:04;10.00;99.90
6357;DHT22;3211;53.452;-2.264;2023-05-16T06:00:46;10.30;99.90
6357;DHT22;3211;53.452;-2.264;2023-05-16T06:03:29;10.30;99.90
6357;DHT22;3211;53.452;-2.264;2023-05-16T06:06:11;10.40;99.90
6357;DHT22;3211;53.452;-2.264;2023-05-16T06:08:54;10.50;99.90
6357;DHT22;3211;53.452;-2.264;2023-05-16T06:11:36;10.60;99.90
6357;DHT22;3211;53.452;-2.264;2023-05-16T06:14:19;10.50;99.90
6357;DHT22;3211;53.452;-2.264;2023-05-16T06:17:01;10.70;99.90
6357;DHT22;3211;53.452;-2.264;2023-05-16T06:19:44;10.70;99.90
6357;DHT22;3211;53.452;-2.264;2023-05-16T06:22:26;10.80;99.90
6357;DHT22;3211;53.452;-2.264;2023-05-16T06:25:08;10.90;99.90
6357;DHT22;3211;53.452;-2.264;2023-05-16T06:27:51;11.10;99.90
6357;DHT22;3211;53.452;-2.264;2023-05-16T06:30:33;11.20;99.90
6357;DHT22;3211;53.452;-2.264;2023-05-16T06:33:15;11.00;99.90
6357;DHT22;3211;53.452;-2.264;2023-05-16T06:35:59;11.10;99.90
6357;DHT22;3211;53.452;-2.264;2023-05-16T06:38:41;11.20;99.90
6357;DHT22;3211;53.452;-2.264;2023-05-16T06:41:23;11.20;99.90
6357;DHT22;3211;53.452;-2.264;2023-05-16T06:44:06;11.20;99.90
6357;DHT22;3211;53.452;-2.264;2023-05-16T06:46:47;11.20;99.90
6357;DHT22;3211;53.452;-2.264;2023-05-16T06:49:30;11.10;99.90
6357;DHT22;3211;53.452;-2.264;2023-05-16T06:52:13;11.20;99.90
6357;DHT22;3211;53.452;-2.264;2023-05-16T06:54:55;11.30;99.90
6357;DHT22;3211;53.452;-2.264;2023-05-16T06:57:37;11.20;99.90
6357;DHT22;3211;53.452;-2.264;2023-05-16T07:00:20;11.20;99.90
6357;DHT22;3211;53.452;-2.264;2023-05-16T07:03:04;11.20;99.90
6357;DHT22;3211;53.452;-2.264;2023-05-16T07:05:46;11.40;99.90
6357;DHT22;3211;53.452;-2.264;2023-05-16T07:08:32;11.50;99.90
6357;DHT22;3211;53.452;-2.264;2023-05-16T07:11:15;11.30;99.90
6357;DHT22;3211;53.452;-2.264;2023-05-16T07:13:57;11.30;99.90
6357;DHT22;3211;53.452;-2.264;2023-05-16T07:16:39;11.40;99.90
6357;DHT22;3211;53.452;-2.264;2023-05-16T07:19:22;11.30;99.90
6357;DHT22;3211;53.452;-2.264;2023-05-16T07:22:04;11.30;99.90
6357;DHT22;3211;53.452;-2.264;2023-05-16T07:24:47;11.40;99.90
6357;DHT22;3211;53.452;-2.264;2023-05-16T07:27:30;11.50;99.90
6357;DHT22;3211;53.452;-2.264;2023-05-16T07:30:13;11.70;99.90
6357;DHT22;3211;53.452;-2.264;2023-05-16T07:32:55;11.80;99.90
6357;DHT22;3211;53.452;-2.264;2023-05-16T07:35:37;11.80;99.90
6357;DHT22;3211;53.452;-2.264;2023-05-16T07:38:20;12.00;99.90
6357;DHT22;3211;53.452;-2.264;2023-05-16T07:41:03;12.30;99.90
6357;DHT22;3211;53.452;-2.264;2023-05-16T07:43:45;12.50;99.90
6357;DHT22;3211;53.452;-2.264;2023-05-16T07:46:27;12.60;99.90
6357;DHT22;3211;53.452;-2.264;2023-05-16T07:49:09;12.60;99.90
6357;DHT22;3211;53.452;-2.264;2023-05-16T07:51:52;12.80;99.90
6357;DHT22;3211;53.452;-2.264;2023-05-16T07:54:34;12.80;99.90
6357;DHT22;3211;53.452;-2.264;2023-05-16T07:57:18;12.80;99.90
6357;DHT22;3211;53.452;-2.264;2023-05-16T08:00:00;12.60;99.90
6357;DHT22;3211;53.452;-2.264;2023-05-16T08:02:44;12.70;99.90
6357;DHT22;3211;53.452;-2.264;2023-05-16T08:05:26;12.60;99.70
6357;DHT22;3211;53.452;-2.264;2023-05-16T08:08:08;12.80;94.80
6357;DHT22;3211;53.452;-2.264;2023-05-16T08:10:50;12.90;93.40
6357;DHT22;3211;53.452;-2.264;2023-05-16T08:13:34;13.20;90.20
6357;DHT22;3211;53.452;-2.264;2023-05-16T08:16:16;13.20;88.00
6357;DHT22;3211;53.452;-2.264;2023-05-16T08:18:58;12.90;83.40
6357;DHT22;3211;53.452;-2.264;2023-05-16T08:21:40;12.80;91.70
6357;DHT22;3211;53.452;-2.264;2023-05-16T08:24:22;12.70;98.10
6357;DHT22;3211;53.452;-2.264;2023-05-16T08:27:05;12.80;99.90
6357;DHT22;3211;53.452;-2.264;2023-05-16T08:29:49;12.50;99.90
6357;DHT22;3211;53.452;-2.264;2023-05-16T08:32:34;12.30;99.90
6357;DHT22;3211;53.452;-2.264;2023-05-16T08:35:17;12.20;99.90
6357;DHT22;3211;53.452;-2.264;2023-05-16T08:37:59;12.10;99.90
6357;DHT22;3211;53.452;-2.264;2023-05-16T08:40:42;12.40;99.90
6357;DHT22;3211;53.452;-2.264;2023-05-16T08:43:27;12.40;99.90
6357;DHT22;3211;53.452;-2.264;2023-05-16T08:46:12;12.60;99.90
6357;DHT22;3211;53.452;-2.264;2023-05-16T08:48:59;12.60;99.90
6357;DHT22;3211;53.452;-2.264;2023-05-16T08:51:45;12.70;99.90
6357;DHT22;3211;53.452;-2.264;2023-05-16T08:54:30;12.80;99.90
6357;DHT22;3211;53.452;-2.264;2023-05-16T08:57:21;12.70;99.90
6357;DHT22;3211;53.452;-2.264;2023-05-16T09:00:08;12.90;99.90
6357;DHT22;3211;53.452;-2.264;2023-05-16T09:02:54;12.80;99.90
6357;DHT22;3211;53.452;-2.264;2023-05-16T09:05:36;12.80;99.90
6357;DHT22;3211;53.452;-2.264;2023-05-16T09:08:19;12.80;99.90
6357;DHT22;3211;53.452;-2.264;2023-05-16T09:11:01;12.70;99.90
6357;DHT22;3211;53.452;-2.264;2023-05-16T09:16:13;13.50;99.90
6357;DHT22;3211;53.452;-2.264;2023-05-16T09:18:58;13.70;99.90
6357;DHT22;3211;53.452;-2.264;2023-05-16T09:21:41;13.40;98.40
6357;DHT22;3211;53.452;-2.264;2023-05-16T09:24:24;13.30;99.10
6357;DHT22;3211;53.452;-2.264;2023-05-16T09:27:07;13.30;96.60
6357;DHT22;3211;53.452;-2.264;2023-05-16T09:29:50;13.60;87.20
6357;DHT22;3211;53.452;-2.264;2023-05-16T09:32:32;13.70;71.20
6357;DHT22;3211;53.452;-2.264;2023-05-16T09:35:16;13.70;75.70
6357;DHT22;3211;53.452;-2.264;2023-05-16T09:37:58;13.20;62.00
6357;DHT22;3211;53.452;-2.264;2023-05-16T09:40:40;13.20;64.00
6357;DHT22;3211;53.452;-2.264;2023-05-16T09:43:25;13.20;57.40
6357;DHT22;3211;53.452;-2.264;2023-05-16T09:46:07;13.30;58.70
6357;DHT22;3211;53.452;-2.264;2023-05-16T09:48:51;13.40;53.20
6357;DHT22;3211;53.452;-2.264;2023-05-16T09:51:34;13.60;47.30
6357;DHT22;3211;53.452;-2.264;2023-05-16T09:54:29;13.90;34.80
6357;DHT22;3211;53.452;-2.264;2023-05-16T09:57:11;13.70;21.60
6357;DHT22;3211;53.452;-2.264;2023-05-16T09:59:54;13.90;25.90
6357;DHT22;3211;53.452;-2.264;2023-05-16T10:02:41;14.00;23.00
6357;DHT22;3211;53.452;-2.264;2023-05-16T10:05:26;14.00;25.00
6357;DHT22;3211;53.452;-2.264;2023-05-16T10:08:09;13.70;29.00
6357;DHT22;3211;53.452;-2.264;2023-05-16T10:10:54;13.80;29.00
6357;DHT22;3211;53.452;-2.264;2023-05-16T10:13:37;13.50;29.20
6357;DHT22;3211;53.452;-2.264;2023-05-16T10:16:21;13.60;30.70
6357;DHT22;3211;53.452;-2.264;2023-05-16T10:19:04;13.50;28.30
6357;DHT22;3211;53.452;-2.264;2023-05-16T10:21:50;13.50;41.60
6357;DHT22;3211;53.452;-2.264;2023-05-16T10:24:43;13.50;36.90
6357;DHT22;3211;53.452;-2.264;2023-05-16T10:27:27;13.50;45.10
6357;DHT22;3211;53.452;-2.264;2023-05-16T10:30:10;14.00;44.70
6357;DHT22;3211;53.452;-2.264;2023-05-16T10:32:53;14.10;27.00
6357;DHT22;3211;53.452;-2.264;2023-05-16T10:35:35;14.60;24.00
6357;DHT22;3211;53.452;-2.264;2023-05-16T10:38:18;14.50;4.30
6357;DHT22;3211;53.452;-2.264;2023-05-16T10:41:03;14.60;9.60
6357;DHT22;3211;53.452;-2.264;2023-05-16T10:43:55;14.20;8.90
6357;DHT22;3211;53.452;-2.264;2023-05-16T10:46:37;14.00;16.80
6357;DHT22;3211;53.452;-2.264;2023-05-16T10:49:20;14.20;30.00
6357;DHT22;3211;53.452;-2.264;2023-05-16T10:52:05;13.90;30.80
6357;DHT22;3211;53.452;-2.264;2023-05-16T10:54:50;14.00;36.60
6357;DHT22;3211;53.452;-2.264;2023-05-16T10:57:33;14.20;31.70
6357;DHT22;3211;53.452;-2.264;2023-05-16T11:00:21;14.20;20.70
6357;DHT22;3211;53.452;-2.264;2023-05-16T11:03:04;13.90;21.80
6357;DHT22;3211;53.452;-2.264;2023-05-16T11:05:50;14.10;25.20
6357;DHT22;3211;53.452;-2.264;2023-05-16T11:08:34;14.30;14.40
6357;DHT22;3211;53.452;-2.264;2023-05-16T11:11:38;14.10;18.50
6357;DHT22;3211;53.452;-2.264;2023-05-16T11:14:22;14.00;32.00
6357;DHT22;3211;53.452;-2.264;2023-05-16T11:17:10;13.80;28.60
6357;DHT22;3211;53.452;-2.264;2023-05-16T11:19:55;13.90;28.60
6357;DHT22;3211;53.452;-2.264;2023-05-16T11:22:38;14.00;29.90
6357;DHT22;3211;53.452;-2.264;2023-05-16T11:25:34;14.20;30.00
6357;DHT22;3211;53.452;-2.264;2023-05-16T11:28:20;14.30;30.50
6357;DHT22;3211;53.452;-2.264;2023-05-16T11:31:04;14.20;23.30
6357;DHT22;3211;53.452;-2.264;2023-05-16T11:33:46;14.20;31.60
6357;DHT22;3211;53.452;-2.264;2023-05-16T11:36:28;14.10;26.30
6357;DHT22;3211;53.452;-2.264;2023-05-16T11:39:11;14.30;29.10
6357;DHT22;3211;53.452;-2.264;2023-05-16T11:41:53;14.50;23.50
6357;DHT22;3211;53.452;-2.264;2023-05-16T11:44:35;14.50;24.30
6357;DHT22;3211;53.452;-2.264;2023-05-16T11:47:19;14.10;28.00
6357;DHT22;3211;53.452;-2.264;2023-05-16T11:50:03;14.10;34.60
6357;DHT22;3211;53.452;-2.264;2023-05-16T11:52:47;14.00;37.50
6357;DHT22;3211;53.452;-2.264;2023-05-16T11:55:30;14.20;32.10
6357;DHT22;3211;53.452;-2.264;2023-05-16T11:58:12;15.00;16.70
6357;DHT22;3211;53.452;-2.264;2023-05-16T12:00:54;15.50;8.30
6357;DHT22;3211;53.452;-2.264;2023-05-16T12:03:37;15.40;1.00
6357;DHT22;3211;53.452;-2.264;2023-05-16T12:06:20;15.20;1.00
6357;DHT22;3211;53.452;-2.264;2023-05-16T12:09:02;15.30;1.00
6357;DHT22;3211;53.452;-2.264;2023-05-16T12:11:51;15.40;1.00
6357;DHT22;3211;53.452;-2.264;2023-05-16T12:14:33;15.70;1.00
6357;DHT22;3211;53.452;-2.264;2023-05-16T12:17:15;15.00;1.00
6357;DHT22;3211;53.452;-2.264;2023-05-16T12:19:59;14.90;3.50
6357;DHT22;3211;53.452;-2.264;2023-05-16T12:22:43;15.20;1.00
6357;DHT22;3211;53.452;-2.264;2023-05-16T12:25:26;15.00;1.00
6357;DHT22;3211;53.452;-2.264;2023-05-16T12:28:11;14.70;12.20
6357;DHT22;3211;53.452;-2.264;2023-05-16T12:30:53;14.80;21.90
6357;DHT22;3211;53.452;-2.264;2023-05-16T12:33:36;14.90;26.20
6357;DHT22;3211;53.452;-2.264;2023-05-16T12:36:20;15.10;26.10
6357;DHT22;3211;53.452;-2.264;2023-05-16T12:39:02;15.30;14.30
6357;DHT22;3211;53.452;-2.264;2023-05-16T12:41:44;15.50;13.90
6357;DHT22;3211;53.452;-2.264;2023-05-16T12:44:29;16.20;5.40
6357;DHT22;3211;53.452;-2.264;2023-05-16T12:47:11;16.70;1.00
6357;DHT22;3211;53.452;-2.264;2023-05-16T12:49:53;16.60;1.00
6357;DHT22;3211;53.452;-2.264;2023-05-16T12:52:36;16.60;1.00
6357;DHT22;3211;53.452;-2.264;2023-05-16T12:55:20;16.20;1.00
6357;DHT22;3211;53.452;-2.264;2023-05-16T12:58:02;16.10;1.00
6357;DHT22;3211;53.452;-2.264;2023-05-16T13:00:44;16.10;1.00
6357;DHT22;3211;53.452;-2.264;2023-05-16T13:03:26;16.10;1.00
6357;DHT22;3211;53.452;-2.264;2023-05-16T13:06:08;16.30;1.00
6357;DHT22;3211;53.452;-2.264;2023-05-16T13:08:52;16.70;1.00
6357;DHT22;3211;53.452;-2.264;2023-05-16T13:11:34;16.30;1.00
6357;DHT22;3211;53.452;-2.264;2023-05-16T13:14:16;16.40;1.00
6357;DHT22;3211;53.452;-2.264;2023-05-16T13:16:58;16.00;1.00
6357;DHT22;3211;53.452;-2.264;2023-05-16T13:19:40;16.60;1.00
6357;DHT22;3211;53.452;-2.264;2023-05-16T13:22:22;16.50;1.00
6357;DHT22;3211;53.452;-2.264;2023-05-16T13:25:06;16.90;1.00
6357;DHT22;3211;53.452;-2.264;2023-05-16T13:27:48;17.80;1.00
6357;DHT22;3211;53.452;-2.264;2023-05-16T13:30:30;18.00;1.00
6357;DHT22;3211;53.452;-2.264;2023-05-16T13:33:12;17.70;1.00
6357;DHT22;3211;53.452;-2.264;2023-05-16T13:35:54;17.30;1.00
6357;DHT22;3211;53.452;-2.264;2023-05-16T13:38:36;17.40;1.00
6357;DHT22;3211;53.452;-2.264;2023-05-16T13:41:20;17.30;1.00
6357;DHT22;3211;53.452;-2.264;2023-05-16T13:44:02;17.60;1.00
6357;DHT22;3211;53.452;-2.264;2023-05-16T13:46:44;17.30;1.00
6357;DHT22;3211;53.452;-2.264;2023-05-16T13:49:26;17.30;1.00
6357;DHT22;3211;53.452;-2.264;2023-05-16T13:52:08;17.60;1.00
6357;DHT22;3211;53.452;-2.264;2023-05-16T13:54:50;18.20;1.00
6357;DHT22;3211;53.452;-2.264;2023-05-16T13:57:34;18.00;1.00
6357;DHT22;3211;53.452;-2.264;2023-05-16T14:00:16;18.50;1.00
6357;DHT22;3211;53.452;-2.264;2023-05-16T14:02:58;18.00;1.00
6357;DHT22;3211;53.452;-2.264;2023-05-16T14:05:40;18.20;1.00
6357;DHT22;3211;53.452;-2.264;2023-05-16T14:08:22;17.90;1.00
6357;DHT22;3211;53.452;-2.264;2023-05-16T14:11:04;18.00;1.00
6357;DHT22;3211;53.452;-2.264;2023-05-16T14:13:47;17.60;1.00
6357;DHT22;3211;53.452;-2.264;2023-05-16T14:16:30;18.20;1.00
6357;DHT22;3211;53.452;-2.264;2023-05-16T14:19:12;17.90;1.00
6357;DHT22;3211;53.452;-2.264;2023-05-16T14:21:55;18.00;1.00
6357;DHT22;3211;53.452;-2.264;2023-05-16T14:24:36;17.70;1.00
6357;DHT22;3211;53.452;-2.264;2023-05-16T14:27:18;18.60;1.00
6357;DHT22;3211;53.452;-2.264;2023-05-16T14:30:02;18.40;1.00
6357;DHT22;3211;53.452;-2.264;2023-05-16T14:32:44;19.00;1.00
6357;DHT22;3211;53.452;-2.264;2023-05-16T14:35:26;19.30;1.00
6357;DHT22;3211;53.452;-2.264;2023-05-16T14:38:08;19.20;1.00
6357;DHT22;3211;53.452;-2.264;2023-05-16T14:40:50;20.00;1.00
6357;DHT22;3211;53.452;-2.264;2023-05-16T14:43:32;19.00;1.00
6357;DHT22;3211;53.452;-2.264;2023-05-16T14:46:16;18.30;1.00
6357;DHT22;3211;53.452;-2.264;2023-05-16T14:48:58;19.80;1.00
6357;DHT22;3211;53.452;-2.264;2023-05-16T14:51:43;20.90;1.00
6357;DHT22;3211;53.452;-2.264;2023-05-16T14:54:28;18.70;1.00
6357;DHT22;3211;53.452;-2.264;2023-05-16T14:57:10;18.50;1.00
6357;DHT22;3211;53.452;-2.264;2023-05-16T14:59:52;17.90;1.00
6357;DHT22;3211;53.452;-2.264;2023-05-16T15:02:36;18.10;1.00
6357;DHT22;3211;53.452;-2.264;2023-05-16T15:05:18;17.50;1.00
6357;DHT22;3211;53.452;-2.264;2023-05-16T15:08:00;17.70;1.00
6357;DHT22;3211;53.452;-2.264;2023-05-16T15:10:42;17.60;1.00
6357;DHT22;3211;53.452;-2.264;2023-05-16T15:13:23;17.60;1.00
6357;DHT22;3211;53.452;-2.264;2023-05-16T15:16:06;18.60;1.00
6357;DHT22;3211;53.452;-2.264;2023-05-16T15:18:49;18.40;1.00
6357;DHT22;3211;53.452;-2.264;2023-05-16T15:21:31;19.30;1.00
6357;DHT22;3211;53.452;-2.264;2023-05-16T15:24:13;18.90;1.00
6357;DHT22;3211;53.452;-2.264;2023-05-16T15:26:56;19.70;1.00
6357;DHT22;3211;53.452;-2.264;2023-05-16T15:29:38;21.30;1.00
6357;DHT22;3211;53.452;-2.264;2023-05-16T15:32:20;21.50;1.00
6357;DHT22;3211;53.452;-2.264;2023-05-16T15:35:05;21.60;1.00
6357;DHT22;3211;53.452;-2.264;2023-05-16T15:37:47;22.40;1.00
6357;DHT22;3211;53.452;-2.264;2023-05-16T15:40:29;23.00;1.00
6357;DHT22;3211;53.452;-2.264;2023-05-16T15:43:11;24.90;99.90
6357;DHT22;3211;53.452;-2.264;2023-05-16T15:45:52;25.10;99.90
6357;DHT22;3211;53.452;-2.264;2023-05-16T15:48:35;22.20;99.90
6357;DHT22;3211;53.452;-2.264;2023-05-16T15:51:18;23.50;99.90
6357;DHT22;3211;53.452;-2.264;2023-05-16T15:54:00;22.50;99.90
6357;DHT22;3211;53.452;-2.264;2023-05-16T15:56:42;21.20;1.00
6357;DHT22;3211;53.452;-2.264;2023-05-16T15:59:24;21.00;1.00
6357;DHT22;3211;53.452;-2.264;2023-05-16T16:02:06;20.80;1.00
6357;DHT22;3211;53.452;-2.264;2023-05-16T16:04:48;19.10;1.00
6357;DHT22;3211;53.452;-2.264;2023-05-16T16:07:32;21.40;1.00
6357;DHT22;3211;53.452;-2.264;2023-05-16T16:10:14;21.80;1.00
6357;DHT22;3211;53.452;-2.264;2023-05-16T16:12:59;24.40;99.90
6357;DHT22;3211;53.452;-2.264;2023-05-16T16:15:41;24.10;99.90
6357;DHT22;3211;53.452;-2.264;2023-05-16T16:18:23;23.00;1.00
6357;DHT22;3211;53.452;-2.264;2023-05-16T16:21:06;22.40;1.00
6357;DHT22;3211;53.452;-2.264;2023-05-16T16:23:51;19.90;1.00
6357;DHT22;3211;53.452;-2.264;2023-05-16T16:26:33;18.70;1.00
6357;DHT22;3211;53.452;-2.264;2023-05-16T16:29:15;18.20;1.00
6357;DHT22;3211;53.452;-2.264;2023-05-16T16:31:57;17.90;1.00
6357;DHT22;3211;53.452;-2.264;2023-05-16T16:34:39;18.10;1.00
6357;DHT22;3211;53.452;-2.264;2023-05-16T16:37:21;17.80;1.00
6357;DHT22;3211;53.452;-2.264;2023-05-16T16:40:07;17.80;1.00
6357;DHT22;3211;53.452;-2.264;2023-05-16T16:42:49;17.50;1.00
6357;DHT22;3211;53.452;-2.264;2023-05-16T16:45:31;17.10;1.00
6357;DHT22;3211;53.452;-2.264;2023-05-16T16:48:13;17.00;1.00
6357;DHT22;3211;53.452;-2.264;2023-05-16T16:50:56;17.20;1.00
6357;DHT22;3211;53.452;-2.264;2023-05-16T16:53:37;17.10;1.00
6357;DHT22;3211;53.452;-2.264;2023-05-16T16:56:21;16.70;1.00
6357;DHT22;3211;53.452;-2.264;2023-05-16T16:59:06;16.90;1.00
6357;DHT22;3211;53.452;-2.264;2023-05-16T17:01:48;17.00;1.00
6357;DHT22;3211;53.452;-2.264;2023-05-16T17:04:29;17.20;1.00
6357;DHT22;3211;53.452;-2.264;2023-05-16T17:07:14;16.80;1.00
6357;DHT22;3211;53.452;-2.264;2023-05-16T17:09:56;16.70;1.00
6357;DHT22;3211;53.452;-2.264;2023-05-16T17:12:39;16.30;1.00
6357;DHT22;3211;53.452;-2.264;2023-05-16T17:15:28;16.60;1.00
6357;DHT22;3211;53.452;-2.264;2023-05-16T17:18:10;16.70;1.00
6357;DHT22;3211;53.452;-2.264;2023-05-16T17:20:52;16.40;1.00
6357;DHT22;3211;53.452;-2.264;2023-05-16T17:23:35;16.40;1.00
6357;DHT22;3211;53.452;-2.264;2023-05-16T17:26:17;16.20;1.00
6357;DHT22;3211;53.452;-2.264;2023-05-16T17:29:01;16.30;1.00
6357;DHT22;3211;53.452;-2.264;2023-05-16T17:31:43;16.10;1.00
6357;DHT22;3211;53.452;-2.264;2023-05-16T17:34:25;16.00;1.00
6357;DHT22;3211;53.452;-2.264;2023-05-16T17:37:07;16.50;1.00
6357;DHT22;3211;53.452;-2.264;2023-05-16T17:39:50;16.70;1.00